createdAt,value
2022-08-05T00:02:22.834Z,18.73
2022-08-05T00:04:55.846Z,16.55
2022-08-05T00:07:59.663Z,18.92
2022-08-05T00:10:11.636Z,19.63
2022-08-05T00:12:56.701Z,17.20
2022-08-05T00:15:55.497Z,16.95
2022-08-05T00:18:22.539Z,21.00
2022-08-05T00:20:50.817Z,18.67
2022-08-05T00:23:44.313Z,20.23
2022-08-05T00:26:07.002Z,21.13
2022-08-05T00:28:35.372Z,17.65
2022-08-05T00:31:04.932Z,15.43
2022-08-05T00:34:56.057Z,25.45
2022-08-05T00:37:12.889Z,15.88
2022-08-05T00:39:13.854Z,18.17
2022-08-05T00:41:51.700Z,20.38
2022-08-05T00:44:30.608Z,21.40
2022-08-05T00:47:02.116Z,18.88
2022-08-05T00:49:51.020Z,18.65
2022-08-05T00:52:28.365Z,20.90
2022-08-05T00:54:56.814Z,15.50
2022-08-05T00:57:25.422Z,16.60
2022-08-05T00:59:59.764Z,16.33
2022-08-05T01:02:28.890Z,16.55
2022-08-05T01:04:56.634Z,14.25
2022-08-05T01:07:31.515Z,14.30
2022-08-05T01:09:59.887Z,11.90
2022-08-05T01:12:29.833Z,9.48
2022-08-05T01:15:04.014Z,10.35
2022-08-05T01:17:39.981Z,13.57
2022-08-05T01:20:16.944Z,8.60
2022-08-05T01:22:57.233Z,12.20
2022-08-05T01:25:53.153Z,9.05
2022-08-05T01:28:27.796Z,11.05
2022-08-05T01:31:03.369Z,11.65
2022-08-05T01:33:35.963Z,8.52
2022-08-05T01:36:12.943Z,7.65
2022-08-05T01:38:45.360Z,7.25
2022-08-05T01:41:15.113Z,7.88
2022-08-05T01:43:45.412Z,9.95
2022-08-05T01:46:42.208Z,8.13
2022-08-05T01:49:23.257Z,7.32
2022-08-05T01:51:55.266Z,6.63
2022-08-05T01:54:25.590Z,7.18
2022-08-05T01:58:11.968Z,6.25
2022-08-05T01:59:47.401Z,5.07
2022-08-05T02:02:15.957Z,7.63
2022-08-05T02:04:46.090Z,7.20
2022-08-05T02:07:22.049Z,5.82
2022-08-05T02:09:50.998Z,7.63
2022-08-05T02:12:22.653Z,6.75
2022-08-05T02:15:03.429Z,7.93
2022-08-05T02:18:28.108Z,4.93
2022-08-05T02:20:24.183Z,5.72
2022-08-05T02:22:57.404Z,6.55
2022-08-05T02:25:33.169Z,9.48
2022-08-05T02:28:02.205Z,8.32
2022-08-05T02:30:36.774Z,7.28
2022-08-05T02:33:06.664Z,7.85
2022-08-05T02:35:38.620Z,6.95
2022-08-05T02:38:19.841Z,7.13
2022-08-05T02:40:47.981Z,7.00
2022-08-05T02:43:16.377Z,7.78
2022-08-05T02:45:52.848Z,4.20
2022-08-05T02:48:29.030Z,10.23
2022-08-05T02:50:59.151Z,6.18
2022-08-05T02:53:27.041Z,6.57
2022-08-05T02:56:00.392Z,6.15
2022-08-05T02:58:30.611Z,6.07
2022-08-05T03:01:03.012Z,6.97
2022-08-05T03:03:34.316Z,5.15
2022-08-05T03:06:53.763Z,5.95
2022-08-05T03:09:15.955Z,7.43
2022-08-05T03:11:54.979Z,6.93
2022-08-05T03:14:25.453Z,6.53
2022-08-05T03:16:55.426Z,7.10
2022-08-05T03:19:33.883Z,7.88
2022-08-05T03:22:04.904Z,6.30
2022-08-05T03:24:44.523Z,4.07
2022-08-05T03:27:15.839Z,6.93
2022-08-05T03:29:59.592Z,6.60
2022-08-05T03:32:33.400Z,7.50
2022-08-05T03:35:01.338Z,7.05
2022-08-05T03:37:32.585Z,8.25
2022-08-05T03:40:15.503Z,6.18
2022-08-05T03:42:52.917Z,8.50
2022-08-05T03:45:22.982Z,7.82
2022-08-05T03:47:57.112Z,8.57
2022-08-05T03:50:26.613Z,4.72
2022-08-05T03:55:50.894Z,6.97
2022-08-05T03:56:05.969Z,6.05
2022-08-05T03:58:41.408Z,6.13
2022-08-05T04:01:11.209Z,8.15
2022-08-05T04:04:09.722Z,5.70
2022-08-05T04:06:34.697Z,7.07
2022-08-05T04:09:06.951Z,5.13
2022-08-05T04:11:47.586Z,7.03
2022-08-05T04:14:19.536Z,6.38
2022-08-05T04:16:59.064Z,6.05
2022-08-05T04:19:28.761Z,6.22
2022-08-05T04:22:08.393Z,4.43
2022-08-05T04:24:38.985Z,9.45
2022-08-05T04:27:13.501Z,5.18
2022-08-05T04:29:41.638Z,6.80
2022-08-05T04:32:10.455Z,4.40
2022-08-05T04:34:42.645Z,4.82
2022-08-05T04:37:11.401Z,3.03
2022-08-05T04:39:40.454Z,4.53
2022-08-05T04:42:09.832Z,5.45
2022-08-05T04:44:38.275Z,5.05
2022-08-05T04:47:08.634Z,6.20
2022-08-05T04:50:02.487Z,5.72
2022-08-05T04:52:28.064Z,6.78
2022-08-05T04:54:57.429Z,4.80
2022-08-05T04:57:29.262Z,3.33
2022-08-05T04:59:58.517Z,4.50
2022-08-05T05:02:41.297Z,3.95
2022-08-05T05:05:26.270Z,2.88
2022-08-05T05:08:01.234Z,5.03
2022-08-05T05:10:33.314Z,2.80
2022-08-05T05:13:03.790Z,5.00
2022-08-05T05:15:54.380Z,2.72
2022-08-05T05:18:31.195Z,2.15
2022-08-05T05:21:05.536Z,2.22
2022-08-05T05:23:50.353Z,4.25
2022-08-05T05:26:28.759Z,5.32
2022-08-05T05:29:02.315Z,5.97
2022-08-05T05:34:02.156Z,6.38
2022-08-05T05:36:32.055Z,4.05
2022-08-05T05:38:59.919Z,4.05
2022-08-05T05:41:40.468Z,5.45
2022-08-05T05:44:35.662Z,3.03
2022-08-05T05:46:57.992Z,3.60
2022-08-05T05:49:25.952Z,4.45
2022-08-05T05:51:55.377Z,4.43
2022-08-05T05:54:50.659Z,4.25
2022-08-05T05:57:13.770Z,4.40
2022-08-05T05:59:51.057Z,4.55
2022-08-05T06:02:32.436Z,4.63
2022-08-05T06:05:10.600Z,4.40
2022-08-05T06:08:01.419Z,3.67
2022-08-05T06:10:36.352Z,2.10
2022-08-05T06:13:05.448Z,4.53
2022-08-05T06:16:28.597Z,5.35
2022-08-05T06:18:21.302Z,3.28
2022-08-05T06:20:59.231Z,2.03
2022-08-05T06:23:32.104Z,3.25
2022-08-05T06:26:13.256Z,4.03
2022-08-05T06:28:48.240Z,3.67
2022-08-05T06:31:18.029Z,2.92
2022-08-05T06:34:07.880Z,3.63
2022-08-05T06:36:53.680Z,4.90
2022-08-05T06:39:27.621Z,2.83
2022-08-05T06:41:58.698Z,2.67
2022-08-05T06:44:26.977Z,4.70
2022-08-05T06:46:54.778Z,3.90
2022-08-05T06:50:00.603Z,5.47
2022-08-05T06:52:37.088Z,2.47
2022-08-05T06:55:00.806Z,5.10
2022-08-05T06:58:03.131Z,4.10
2022-08-05T07:00:22.484Z,5.78
2022-08-05T07:02:53.999Z,5.22
2022-08-05T07:05:31.800Z,3.15
2022-08-05T07:08:05.859Z,5.70
2022-08-05T07:10:34.965Z,3.53
2022-08-05T07:13:56.914Z,3.80
2022-08-05T07:17:56.476Z,4.72
2022-08-05T07:19:15.335Z,4.10
2022-08-05T07:22:00.276Z,5.43
2022-08-05T07:24:29.884Z,5.93
2022-08-05T07:26:59.101Z,4.22
2022-08-05T07:30:22.803Z,4.63
2022-08-05T07:32:14.792Z,4.32
2022-08-05T07:34:42.644Z,4.57
2022-08-05T07:37:11.535Z,5.80
2022-08-05T07:40:04.567Z,5.43
2022-08-05T07:42:31.560Z,2.92
2022-08-05T07:45:03.055Z,4.85
2022-08-05T07:47:42.566Z,4.38
2022-08-05T07:50:11.020Z,3.92
2022-08-05T07:52:44.879Z,3.70
2022-08-05T07:55:16.025Z,3.70
2022-08-05T07:58:05.019Z,4.20
2022-08-05T08:00:34.759Z,3.30
2022-08-05T08:03:13.960Z,3.90
2022-08-05T08:05:49.485Z,2.92
2022-08-05T08:08:19.872Z,2.72
2022-08-05T08:10:48.842Z,4.85
2022-08-05T08:13:22.000Z,3.92
2022-08-05T08:16:43.046Z,5.03
2022-08-05T08:18:49.889Z,4.75
2022-08-05T08:21:18.313Z,3.13
2022-08-05T08:24:02.840Z,4.60
2022-08-05T08:26:32.573Z,3.70
2022-08-05T08:29:29.606Z,4.50
2022-08-05T08:31:52.263Z,3.72
2022-08-05T08:34:30.626Z,5.57
2022-08-05T08:37:04.798Z,5.07
2022-08-05T08:39:33.367Z,4.75
2022-08-05T08:42:10.779Z,2.75
2022-08-05T08:45:24.310Z,4.32
2022-08-05T08:48:12.635Z,5.18
2022-08-05T08:51:03.238Z,4.10
2022-08-05T08:53:26.144Z,3.78
2022-08-05T08:56:03.440Z,5.82
2022-08-05T08:58:37.547Z,5.40
2022-08-05T09:01:16.626Z,4.05
2022-08-05T09:03:45.692Z,6.78
2022-08-05T09:06:17.164Z,5.35
2022-08-05T09:08:48.039Z,3.75
2022-08-05T09:11:16.008Z,5.28
2022-08-05T09:14:09.648Z,4.60
2022-08-05T09:16:33.059Z,5.97
2022-08-05T09:19:00.756Z,3.33
2022-08-05T09:22:23.235Z,6.53
2022-08-05T09:24:17.189Z,6.35
2022-08-05T09:26:48.429Z,4.07
2022-08-05T09:29:19.941Z,3.05
2022-08-05T09:32:41.324Z,4.70
2022-08-05T09:34:54.825Z,6.50
2022-08-05T09:38:16.304Z,4.28
2022-08-05T09:40:30.179Z,4.50
2022-08-05T09:43:01.051Z,3.22
2022-08-05T09:46:06.996Z,4.85
2022-08-05T09:48:32.417Z,3.53
2022-08-05T09:51:02.633Z,4.47
2022-08-05T09:53:54.794Z,3.55
2022-08-05T09:56:25.331Z,2.83
2022-08-05T09:59:00.108Z,3.13
2022-08-05T10:01:33.462Z,3.85
2022-08-05T10:04:10.100Z,3.80
2022-08-05T10:06:40.359Z,2.40
2022-08-05T10:09:27.680Z,1.95
2022-08-05T10:11:56.308Z,2.20
2022-08-05T10:14:28.517Z,2.75
2022-08-05T10:17:37.968Z,2.10
2022-08-05T10:20:10.942Z,2.80
2022-08-05T10:22:43.197Z,1.45
2022-08-05T10:25:16.755Z,2.92
2022-08-05T10:28:16.772Z,2.38
2022-08-05T10:31:20.262Z,2.75
2022-08-05T10:33:20.429Z,2.45
2022-08-05T10:35:59.153Z,2.90
2022-08-05T10:38:33.111Z,3.60
2022-08-05T10:41:08.994Z,5.00
2022-08-05T10:43:47.970Z,4.32
2022-08-05T10:46:19.022Z,4.95
2022-08-05T10:49:00.503Z,7.18
2022-08-05T10:51:57.721Z,3.38
2022-08-05T10:54:56.061Z,6.22
2022-08-05T10:57:29.483Z,5.35
2022-08-05T11:00:12.151Z,4.38
2022-08-05T11:03:25.083Z,3.65
2022-08-05T11:06:05.724Z,3.75
2022-08-05T11:08:39.186Z,5.25
2022-08-05T11:11:44.563Z,7.32
2022-08-05T11:14:42.785Z,4.20
2022-08-05T11:17:59.717Z,4.45
2022-08-05T11:20:44.406Z,4.65
2022-08-05T11:24:05.378Z,5.22
2022-08-05T11:26:28.049Z,4.40
2022-08-05T11:28:58.692Z,3.85
2022-08-05T11:31:58.165Z,4.57
2022-08-05T11:34:37.243Z,3.20
2022-08-05T11:37:06.206Z,4.45
2022-08-05T11:40:00.593Z,3.45
2022-08-05T11:42:40.332Z,3.70
2022-08-05T11:45:14.264Z,4.68
2022-08-05T11:47:56.921Z,4.95
2022-08-05T11:50:26.869Z,3.08
2022-08-05T11:52:57.887Z,4.55
2022-08-05T11:55:31.606Z,5.22
2022-08-05T11:58:09.357Z,4.78
2022-08-05T12:00:44.317Z,5.18
2022-08-05T12:03:28.448Z,4.28
2022-08-05T12:06:03.100Z,5.90
2022-08-05T12:08:34.157Z,4.70
2022-08-05T12:11:09.801Z,4.35
2022-08-05T12:13:55.696Z,3.42
2022-08-05T12:16:28.815Z,3.78
2022-08-05T12:18:56.809Z,4.20
2022-08-05T12:21:26.870Z,5.35
2022-08-05T12:24:04.870Z,5.03
2022-08-05T12:26:36.462Z,5.80
2022-08-05T12:29:05.465Z,4.47
2022-08-05T12:31:42.517Z,5.90
2022-08-05T12:34:14.629Z,4.55
2022-08-05T12:36:48.840Z,5.57
2022-08-05T12:39:17.501Z,4.80
2022-08-05T12:41:47.586Z,4.95
2022-08-05T12:44:28.444Z,4.07
2022-08-05T12:47:02.675Z,3.92
2022-08-05T12:50:03.164Z,3.75
2022-08-05T12:52:35.428Z,3.50
2022-08-05T12:55:17.865Z,3.50
2022-08-05T12:58:50.149Z,3.22
2022-08-05T13:02:01.517Z,4.07
2022-08-05T13:03:32.899Z,2.40
2022-08-05T13:06:01.235Z,3.17
2022-08-05T13:08:30.185Z,2.92
2022-08-05T13:11:00.881Z,2.97
2022-08-05T13:14:06.008Z,3.03
2022-08-05T13:16:20.846Z,4.63
2022-08-05T13:18:57.687Z,2.63
2022-08-05T13:21:27.888Z,3.55
2022-08-05T13:24:08.854Z,3.15
2022-08-05T13:26:36.893Z,3.30
2022-08-05T13:29:06.023Z,2.20
2022-08-05T13:32:04.131Z,3.47
2022-08-05T13:34:25.859Z,3.90
2022-08-05T13:36:54.324Z,2.53
2022-08-05T13:39:24.776Z,3.75
2022-08-05T13:42:14.746Z,4.15
2022-08-05T13:44:45.889Z,2.20
2022-08-05T13:47:35.086Z,2.20
2022-08-05T13:50:04.445Z,2.38
2022-08-05T13:52:35.695Z,3.22
2022-08-05T13:55:07.346Z,2.25
2022-08-05T13:57:50.870Z,2.90
2022-08-05T14:00:27.579Z,4.35
2022-08-05T14:02:56.660Z,4.38
2022-08-05T14:05:48.118Z,3.05
2022-08-05T14:08:20.894Z,2.67
2022-08-05T14:10:59.652Z,4.43
2022-08-05T14:13:32.291Z,3.70
2022-08-05T14:16:08.476Z,3.35
2022-08-05T14:18:38.468Z,3.53
2022-08-05T14:22:07.181Z,2.35
2022-08-05T14:23:54.388Z,4.00
2022-08-05T14:26:37.066Z,3.42
2022-08-05T14:29:10.028Z,2.42
2022-08-05T14:32:02.459Z,1.98
2022-08-05T14:34:35.221Z,1.67
2022-08-05T14:37:04.216Z,1.98
2022-08-05T14:39:49.610Z,2.35
2022-08-05T14:42:21.256Z,3.08
2022-08-05T14:44:50.027Z,3.22
2022-08-05T14:48:02.797Z,2.72
2022-08-05T14:50:15.657Z,2.10
2022-08-05T14:52:53.001Z,2.00
2022-08-05T14:55:21.645Z,3.40
2022-08-05T14:57:54.599Z,3.03
2022-08-05T15:00:27.726Z,4.05
2022-08-05T15:02:58.308Z,3.05
2022-08-05T15:05:30.225Z,2.47
2022-08-05T15:08:17.885Z,3.85
2022-08-05T15:11:04.620Z,2.15
2022-08-05T15:13:46.667Z,3.63
2022-08-05T15:16:18.146Z,2.95
2022-08-05T15:18:47.995Z,1.88
2022-08-05T15:21:15.760Z,3.53
2022-08-05T15:23:48.931Z,2.38
2022-08-05T15:26:17.424Z,3.55
2022-08-05T15:29:00.057Z,2.05
2022-08-05T15:31:34.801Z,3.95
2022-08-05T15:34:32.586Z,3.35
2022-08-05T15:36:51.957Z,2.50
2022-08-05T15:41:01.804Z,2.90
2022-08-05T15:42:50.356Z,1.67
2022-08-05T15:44:57.305Z,1.83
2022-08-05T15:47:25.320Z,2.10
2022-08-05T15:49:59.137Z,2.53
2022-08-05T15:52:29.458Z,2.22
2022-08-05T15:55:16.562Z,3.80
2022-08-05T15:57:44.940Z,4.32
2022-08-05T16:00:16.848Z,5.20
2022-08-05T16:02:53.746Z,4.07
2022-08-05T16:05:28.529Z,2.00
2022-08-05T16:07:57.189Z,3.22
2022-08-05T16:10:25.591Z,2.50
2022-08-05T16:12:56.050Z,2.53
2022-08-05T16:15:24.531Z,2.47
2022-08-05T16:18:00.317Z,3.65
2022-08-05T16:20:31.572Z,2.63
2022-08-05T16:23:01.039Z,2.03
2022-08-05T16:25:34.051Z,2.13
2022-08-05T16:28:05.688Z,2.17
2022-08-05T16:30:35.263Z,3.50
2022-08-05T16:33:04.623Z,2.17
2022-08-05T16:35:42.072Z,3.08
2022-08-05T16:38:24.016Z,3.03
2022-08-05T16:40:59.834Z,3.05
2022-08-05T16:43:30.551Z,2.45
2022-08-05T16:46:06.703Z,5.25
2022-08-05T16:48:38.890Z,1.70
2022-08-05T16:51:09.136Z,2.97
2022-08-05T16:54:02.437Z,2.25
2022-08-05T16:56:27.213Z,4.55
2022-08-05T16:58:55.015Z,2.55
2022-08-05T17:01:24.213Z,2.60
2022-08-05T17:03:52.686Z,1.63
2022-08-05T17:06:24.762Z,4.93
2022-08-05T17:08:54.381Z,1.13
2022-08-05T17:11:23.524Z,2.63
2022-08-05T17:13:51.712Z,1.20
2022-08-05T17:16:33.422Z,0.98
2022-08-05T17:19:01.762Z,0.60
2022-08-05T17:21:36.236Z,2.17
2022-08-05T17:24:18.498Z,2.38
2022-08-05T17:26:53.443Z,3.40
2022-08-05T17:29:22.481Z,1.95
2022-08-05T17:31:56.813Z,2.08
2022-08-05T17:34:30.219Z,0.80
2022-08-05T17:37:04.592Z,1.73
2022-08-05T17:39:44.752Z,0.63
2022-08-05T17:42:22.855Z,1.45
2022-08-05T17:44:52.432Z,0.70
2022-08-05T17:47:22.021Z,1.05
2022-08-05T17:50:00.029Z,5.47
2022-08-05T17:52:33.713Z,1.08
2022-08-05T17:55:03.105Z,2.05
2022-08-05T17:57:31.345Z,1.00
2022-08-05T18:00:05.187Z,1.48
2022-08-05T18:02:34.098Z,0.63
2022-08-05T18:05:06.450Z,2.20
2022-08-05T18:07:41.273Z,1.23
2022-08-05T18:10:11.137Z,1.65
2022-08-05T18:12:39.295Z,1.38
2022-08-05T18:15:08.881Z,1.67
2022-08-05T18:18:00.559Z,1.27
2022-08-05T18:20:29.669Z,1.00
2022-08-05T18:23:09.182Z,1.60
2022-08-05T18:25:39.478Z,0.30
2022-08-05T18:28:11.895Z,1.05
2022-08-05T18:30:40.319Z,1.85
2022-08-05T18:33:08.477Z,1.60
2022-08-05T18:36:00.723Z,0.90
2022-08-05T18:38:26.055Z,0.82
2022-08-05T18:41:56.410Z,0.65
2022-08-05T18:43:42.631Z,3.55
2022-08-05T18:46:11.668Z,0.50
2022-08-05T18:48:41.712Z,0.20
2022-08-05T18:52:03.975Z,0.57
2022-08-05T18:54:16.344Z,0.38
2022-08-05T18:56:51.012Z,2.15
2022-08-05T18:59:43.090Z,0.40
2022-08-05T19:02:11.409Z,0.88
2022-08-05T19:05:01.766Z,0.70
2022-08-05T19:07:45.286Z,0.52
2022-08-05T19:10:15.552Z,0.63
2022-08-05T19:12:43.562Z,0.40
2022-08-05T19:15:57.558Z,1.33
2022-08-05T19:18:09.424Z,1.55
2022-08-05T19:20:41.681Z,0.32
2022-08-05T19:24:03.959Z,1.15
2022-08-05T19:26:04.618Z,1.45
2022-08-05T19:28:36.268Z,0.60
2022-08-05T19:31:04.987Z,1.25
2022-08-05T19:33:36.846Z,3.65
2022-08-05T19:36:06.525Z,1.77
2022-08-05T19:38:35.532Z,1.98
2022-08-05T19:41:07.157Z,1.75
2022-08-05T19:44:06.700Z,5.00
2022-08-05T19:46:30.425Z,0.40
2022-08-05T19:49:02.878Z,0.22
2022-08-05T19:51:56.342Z,0.88
2022-08-05T19:54:25.500Z,0.50
2022-08-05T19:57:02.296Z,1.67
2022-08-05T19:59:55.953Z,0.38
2022-08-05T20:02:18.698Z,0.40
2022-08-05T20:04:48.483Z,1.85
2022-08-05T20:07:46.332Z,0.70
2022-08-05T20:10:11.497Z,0.85
2022-08-05T20:12:45.957Z,0.45
2022-08-05T20:15:48.951Z,0.73
2022-08-05T20:18:10.304Z,0.90
2022-08-05T20:20:55.902Z,2.08
2022-08-05T20:23:24.034Z,1.35
2022-08-05T20:26:08.961Z,2.08
2022-08-05T20:28:45.576Z,1.85
2022-08-05T20:31:13.606Z,0.57
2022-08-05T20:33:45.116Z,0.80
2022-08-05T20:36:16.263Z,0.60
2022-08-05T20:38:53.981Z,2.00
2022-08-05T20:41:43.529Z,1.20
2022-08-05T20:44:18.674Z,0.88
2022-08-05T20:46:56.916Z,0.98
2022-08-05T20:49:26.065Z,0.43
2022-08-05T20:51:54.775Z,0.80
2022-08-05T20:54:22.738Z,0.40
2022-08-05T20:56:52.601Z,0.32
2022-08-05T20:59:27.034Z,1.38
2022-08-05T21:02:10.129Z,0.40
2022-08-05T21:04:38.972Z,0.60
2022-08-05T21:07:08.438Z,1.10
2022-08-05T21:09:37.205Z,1.90
2022-08-05T21:12:19.569Z,1.38
2022-08-05T21:14:48.740Z,0.52
2022-08-05T21:17:16.582Z,0.70
2022-08-05T21:19:47.996Z,1.00
2022-08-05T21:22:21.784Z,0.60
2022-08-05T21:24:52.514Z,1.67
2022-08-05T21:27:25.089Z,1.45
2022-08-05T21:29:57.025Z,1.08
2022-08-05T21:32:26.663Z,0.65
2022-08-05T21:35:08.936Z,1.23
2022-08-05T21:37:53.042Z,0.40
2022-08-05T21:40:21.983Z,1.10
2022-08-05T21:42:52.002Z,1.55
2022-08-05T21:45:24.646Z,0.80
2022-08-05T21:48:09.498Z,0.50
2022-08-05T21:50:37.421Z,0.57
2022-08-05T21:53:16.430Z,0.43
2022-08-05T21:56:04.955Z,1.75
2022-08-05T21:58:33.746Z,0.85
2022-08-05T22:01:06.391Z,0.57
2022-08-05T22:03:52.738Z,1.45
2022-08-05T22:06:34.693Z,1.30
2022-08-05T22:09:13.829Z,0.50
2022-08-05T22:11:43.731Z,1.02
2022-08-05T22:14:37.337Z,0.45
2022-08-05T22:17:06.565Z,0.63
2022-08-05T22:20:00.580Z,1.27
2022-08-05T22:22:27.877Z,0.90
2022-08-05T22:25:20.897Z,2.45
2022-08-05T22:28:11.223Z,0.68
2022-08-05T22:30:43.930Z,1.00
2022-08-05T22:33:15.828Z,1.73
2022-08-05T22:35:48.698Z,2.97
2022-08-05T22:38:19.026Z,1.95
2022-08-05T22:40:49.368Z,1.70
2022-08-05T22:43:36.567Z,1.08
2022-08-05T22:46:13.406Z,1.50
2022-08-05T22:48:43.332Z,0.98
2022-08-05T22:51:22.415Z,1.08
2022-08-05T22:53:50.891Z,1.02
2022-08-05T22:56:30.621Z,0.75
2022-08-05T22:59:00.086Z,2.90
2022-08-05T23:02:04.577Z,1.95
2022-08-05T23:04:21.678Z,1.38
2022-08-05T23:06:49.464Z,1.23
2022-08-05T23:09:52.565Z,1.73
2022-08-05T23:12:05.841Z,2.15
2022-08-05T23:14:33.817Z,0.50
2022-08-05T23:17:37.469Z,1.02
2022-08-05T23:20:17.934Z,1.63
2022-08-05T23:22:47.249Z,2.28
2022-08-05T23:25:17.680Z,2.05
2022-08-05T23:28:06.881Z,1.00
2022-08-05T23:30:40.526Z,1.67
2022-08-05T23:33:21.837Z,1.48
2022-08-05T23:35:56.426Z,1.00
2022-08-05T23:38:25.764Z,0.52
2022-08-05T23:40:53.483Z,0.85
2022-08-05T23:43:25.120Z,1.45
2022-08-05T23:46:19.645Z,1.88
2022-08-05T23:49:00.440Z,0.75
2022-08-05T23:51:46.624Z,0.82
2022-08-05T23:54:25.949Z,1.80
2022-08-05T23:56:55.861Z,1.75
2022-08-05T23:59:37.604Z,1.15
